Time;durP1;ratioP1;P1;durP2;ratioP2;P2;SDS_P1;SDS_P2;PMS_P1;PMS_P2;Temp;Humidity;BMP_temperature;BMP_pressure;BME280_temperature;BME280_humidity;BME280_pressure;Samples;Min_cycle;Max_cycle;Signal;HPM_P1;HPM_P2
2021/12/06 00:02:14;;;;;;;12.38;6.13;;;;;;;;;;5035083;28;20025;-59
2021/12/06 00:04:41;;;;;;;11.88;5.45;;;;;;;;;;5034627;28;20096;-60
2021/12/06 00:07:09;;;;;;;11.65;5.03;;;;;;;;;;5034539;28;20026;-60
2021/12/06 00:09:35;;;;;;;12.70;5.60;;;;;;;;;;5034971;28;20477;-61
2021/12/06 00:12:02;;;;;;;10.38;5.65;;;;;;;;;;5034486;28;20021;-60
2021/12/06 00:14:30;;;;;;;11.05;5.45;;;;;;;;;;5033715;28;20037;-59
2021/12/06 00:17:00;;;;;;;10.88;5.07;;;;;;;;;;5034517;28;20024;-59
2021/12/06 00:19:27;;;;;;;13.57;5.80;;;;;;;;;;5034076;28;20375;-58
2021/12/06 00:21:53;;;;;;;9.50;4.63;;;;;;;;;;5034359;28;20018;-59
2021/12/06 00:24:20;;;;;;;11.77;6.57;;;;;;;;;;5033804;28;20056;-60
2021/12/06 00:26:46;;;;;;;11.25;5.20;;;;;;;;;;5034424;28;20025;-53
2021/12/06 00:29:13;;;;;;;8.60;4.13;;;;;;;;;;5034129;28;20026;-59
2021/12/06 00:31:39;;;;;;;7.60;3.83;;;;;;;;;;5033773;28;20075;-59
2021/12/06 00:34:07;;;;;;;9.93;4.50;;;;;;;;;;5034381;28;20097;-59
2021/12/06 00:36:37;;;;;;;7.55;4.20;;;;;;;;;;5033990;28;20033;-59
2021/12/06 00:39:05;;;;;;;7.53;3.58;;;;;;;;;;5034227;28;20026;-60
2021/12/06 00:41:31;;;;;;;11.80;5.20;;;;;;;;;;5034227;28;20084;-59
2021/12/06 00:43:57;;;;;;;10.35;3.60;;;;;;;;;;5033919;28;20431;-58
2021/12/06 00:46:24;;;;;;;10.02;4.45;;;;;;;;;;5034167;28;20339;-60
2021/12/06 00:48:50;;;;;;;6.95;3.40;;;;;;;;;;5033629;28;20097;-58
2021/12/06 00:51:16;;;;;;;29.48;14.18;;;;;;;;;;5033937;28;20060;-59
2021/12/06 00:53:42;;;;;;;39.25;15.88;;;;;;;;;;5033659;28;20025;-59
2021/12/06 00:56:09;;;;;;;31.17;15.80;;;;;;;;;;5034117;28;20041;-59
2021/12/06 00:58:35;;;;;;;71.28;28.95;;;;;;;;;;5033843;28;20024;-59
2021/12/06 01:01:02;;;;;;;40.35;19.70;;;;;;;;;;5033637;28;20113;-59
2021/12/06 01:03:31;;;;;;;37.13;18.58;;;;;;;;;;5033472;28;20471;-60
2021/12/06 01:05:57;;;;;;;34.53;19.05;;;;;;;;;;5033463;28;20100;-60
2021/12/06 01:08:23;;;;;;;36.40;18.42;;;;;;;;;;5033304;28;20025;-61
2021/12/06 01:10:51;;;;;;;41.78;19.30;;;;;;;;;;5033368;28;20035;-58
2021/12/06 01:13:17;;;;;;;45.17;20.55;;;;;;;;;;5032622;28;20028;-59
2021/12/06 01:15:44;;;;;;;44.10;21.42;;;;;;;;;;5033691;28;20045;-62
2021/12/06 01:18:12;;;;;;;42.33;21.65;;;;;;;;;;5033538;28;20040;-59
2021/12/06 01:20:44;;;;;;;44.88;22.20;;;;;;;;;;5033356;28;20064;-55
2021/12/06 01:23:14;;;;;;;44.83;23.48;;;;;;;;;;5033867;28;20013;-58
2021/12/06 01:28:36;;;;;;;42.95;21.50;;;;;;;;;;5037672;28;20025;-59
2021/12/06 01:41:24;;;;;;;44.10;21.30;;;;;;;;;;5037195;28;20116;-58
2021/12/06 01:44:07;;;;;;;45.40;22.27;;;;;;;;;;5037415;28;20025;-59
2021/12/06 01:46:34;;;;;;;45.13;21.73;;;;;;;;;;5037190;28;20033;-58
2021/12/06 01:49:00;;;;;;;44.15;21.35;;;;;;;;;;5037655;28;20021;-60
2021/12/06 01:51:27;;;;;;;43.60;20.48;;;;;;;;;;5037003;28;20433;-61
2021/12/06 01:53:53;;;;;;;40.55;19.30;;;;;;;;;;5037068;28;20021;-61
2021/12/06 01:56:19;;;;;;;40.90;18.45;;;;;;;;;;5036812;28;20033;-60
2021/12/06 01:58:46;;;;;;;39.25;18.50;;;;;;;;;;5036644;28;20021;-58
2021/12/06 02:01:12;;;;;;;41.10;19.02;;;;;;;;;;5036882;28;20032;-59
2021/12/06 02:03:38;;;;;;;37.53;18.80;;;;;;;;;;5036759;28;20044;-57
2021/12/06 02:06:05;;;;;;;43.10;17.52;;;;;;;;;;5036858;28;20023;-60
2021/12/06 02:08:31;;;;;;;35.63;17.08;;;;;;;;;;5036947;28;20100;-60
2021/12/06 02:11:01;;;;;;;33.70;17.05;;;;;;;;;;5036574;28;20355;-60
2021/12/06 02:13:32;;;;;;;34.63;16.73;;;;;;;;;;5036741;28;20485;-61
2021/12/06 02:15:58;;;;;;;35.72;17.55;;;;;;;;;;5035629;28;20038;-60
2021/12/06 02:21:25;;;;;;;36.05;17.00;;;;;;;;;;5034773;28;20120;-58
2021/12/06 02:23:51;;;;;;;33.85;16.88;;;;;;;;;;5034273;28;20041;-60
2021/12/06 02:26:17;;;;;;;40.42;18.40;;;;;;;;;;5035381;28;20025;-61
2021/12/06 02:28:44;;;;;;;33.97;16.67;;;;;;;;;;5036075;28;20109;-61
2021/12/06 02:31:10;;;;;;;28.23;15.05;;;;;;;;;;5035971;28;20051;-59
2021/12/06 02:33:36;;;;;;;34.85;16.00;;;;;;;;;;5035673;28;20079;-60
2021/12/06 02:36:03;;;;;;;33.28;17.00;;;;;;;;;;5035804;28;20037;-57
2021/12/06 02:38:29;;;;;;;34.55;16.38;;;;;;;;;;5035536;28;20433;-55
2021/12/06 02:40:55;;;;;;;33.67;16.90;;;;;;;;;;5036214;28;20179;-58
2021/12/06 02:43:22;;;;;;;34.67;16.92;;;;;;;;;;5036740;28;20156;-59
2021/12/06 02:45:48;;;;;;;29.35;16.42;;;;;;;;;;5036268;28;20025;-60
2021/12/06 02:48:15;;;;;;;31.30;16.73;;;;;;;;;;5036000;28;20025;-61
2021/12/06 02:50:44;;;;;;;35.53;17.08;;;;;;;;;;5036431;28;20459;-59
2021/12/06 02:53:10;;;;;;;30.95;15.88;;;;;;;;;;5036049;28;20482;-58
2021/12/06 02:55:37;;;;;;;36.20;17.00;;;;;;;;;;5035887;28;20061;-61
2021/12/06 02:58:14;;;;;;;38.65;17.35;;;;;;;;;;5035689;28;20057;-59
2021/12/06 03:00:42;;;;;;;33.17;17.60;;;;;;;;;;5035833;28;20517;-58
2021/12/06 03:03:08;;;;;;;44.35;19.20;;;;;;;;;;5035469;28;20471;-59
2021/12/06 03:05:34;;;;;;;42.33;21.25;;;;;;;;;;5035724;28;20516;-57
2021/12/06 03:08:02;;;;;;;41.08;18.42;;;;;;;;;;5036196;28;20084;-59
2021/12/06 03:10:29;;;;;;;41.13;19.23;;;;;;;;;;5035973;28;20025;-59
2021/12/06 03:12:55;;;;;;;31.52;16.65;;;;;;;;;;5035733;28;20060;-58
2021/12/06 03:15:23;;;;;;;39.90;16.63;;;;;;;;;;5035676;28;20040;-61
2021/12/06 03:17:49;;;;;;;33.70;16.70;;;;;;;;;;5035232;28;20071;-60
2021/12/06 03:20:16;;;;;;;36.90;18.17;;;;;;;;;;5035598;28;20032;-57
2021/12/06 03:22:44;;;;;;;44.75;19.83;;;;;;;;;;5035406;28;20021;-60
2021/12/06 03:25:12;;;;;;;36.30;18.08;;;;;;;;;;5035372;28;20405;-61
2021/12/06 03:27:38;;;;;;;36.80;18.48;;;;;;;;;;5035394;28;20030;-60
2021/12/06 03:30:06;;;;;;;39.83;20.05;;;;;;;;;;5035680;28;20028;-60
2021/12/06 03:32:32;;;;;;;40.20;19.02;;;;;;;;;;5035167;28;20017;-58
2021/12/06 03:34:59;;;;;;;39.90;20.65;;;;;;;;;;5035259;28;20030;-60
2021/12/06 03:37:25;;;;;;;44.60;20.15;;;;;;;;;;5034892;28;20429;-59
2021/12/06 03:39:51;;;;;;;29.20;15.10;;;;;;;;;;5035295;28;20074;-60
2021/12/06 03:42:18;;;;;;;27.95;13.40;;;;;;;;;;5034919;28;20032;-58
2021/12/06 03:44:45;;;;;;;29.35;15.15;;;;;;;;;;5035032;28;20080;-60
2021/12/06 03:47:14;;;;;;;35.25;17.42;;;;;;;;;;5034768;28;20078;-59
2021/12/06 03:49:42;;;;;;;22.92;11.52;;;;;;;;;;5033593;28;20021;-59
2021/12/06 03:52:09;;;;;;;27.85;12.57;;;;;;;;;;5034880;28;20022;-57
2021/12/06 03:54:35;;;;;;;24.23;10.93;;;;;;;;;;5034861;28;20501;-60
2021/12/06 03:57:02;;;;;;;42.15;15.80;;;;;;;;;;5034186;28;20475;-60
2021/12/06 03:59:29;;;;;;;37.45;15.80;;;;;;;;;;5034642;28;20025;-58
2021/12/06 04:01:55;;;;;;;27.23;11.52;;;;;;;;;;5034643;28;20021;-57
2021/12/06 04:04:21;;;;;;;28.50;11.32;;;;;;;;;;5034382;28;20037;-59
2021/12/06 04:06:48;;;;;;;18.00;8.85;;;;;;;;;;5034309;28;20021;-62
2021/12/06 04:09:14;;;;;;;19.25;8.13;;;;;;;;;;5034673;28;20053;-60
2021/12/06 04:11:41;;;;;;;20.63;8.73;;;;;;;;;;5034462;28;20356;-61
2021/12/06 04:14:07;;;;;;;17.30;7.00;;;;;;;;;;5034364;28;20442;-61
2021/12/06 04:16:34;;;;;;;13.10;6.10;;;;;;;;;;5034410;28;20112;-59
2021/12/06 04:19:00;;;;;;;16.23;6.95;;;;;;;;;;5034408;28;20024;-61
2021/12/06 04:21:28;;;;;;;8.32;5.63;;;;;;;;;;5034010;28;20021;-55
2021/12/06 04:23:54;;;;;;;21.10;10.50;;;;;;;;;;5034029;28;20049;-60
2021/12/06 04:26:20;;;;;;;20.77;9.77;;;;;;;;;;5034053;28;20471;-59
2021/12/06 04:28:49;;;;;;;14.63;7.03;;;;;;;;;;5034020;28;20025;-61
2021/12/06 04:31:16;;;;;;;193.13;88.40;;;;;;;;;;5033680;28;20074;-61
2021/12/06 04:33:42;;;;;;;17.60;9.60;;;;;;;;;;5033633;28;20029;-59
2021/12/06 04:36:08;;;;;;;15.00;8.45;;;;;;;;;;5033691;28;20033;-61
2021/12/06 04:38:34;;;;;;;16.23;8.85;;;;;;;;;;5034145;28;20028;-59
2021/12/06 04:41:02;;;;;;;17.13;9.27;;;;;;;;;;5033701;28;20029;-59
2021/12/06 04:43:28;;;;;;;15.48;8.73;;;;;;;;;;5033972;28;20029;-58
2021/12/06 04:45:54;;;;;;;15.23;7.85;;;;;;;;;;5033805;28;20034;-59
2021/12/06 04:48:20;;;;;;;16.67;8.77;;;;;;;;;;5033756;28;20021;-59
2021/12/06 04:50:47;;;;;;;17.40;8.60;;;;;;;;;;5033796;28;20022;-61
2021/12/06 04:53:16;;;;;;;17.48;8.85;;;;;;;;;;5033545;28;20052;-60
2021/12/06 04:55:45;;;;;;;21.98;10.43;;;;;;;;;;5033691;28;20079;-58
2021/12/06 04:58:17;;;;;;;72.32;32.28;;;;;;;;;;5033426;28;20018;-61
2021/12/06 05:01:04;;;;;;;19.30;9.63;;;;;;;;;;5033057;28;20020;-59
2021/12/06 05:03:30;;;;;;;22.83;11.77;;;;;;;;;;5034085;28;20051;-59
2021/12/06 05:05:59;;;;;;;21.50;10.05;;;;;;;;;;5033691;28;20080;-58
2021/12/06 05:08:31;;;;;;;17.27;7.88;;;;;;;;;;5033545;28;20055;-61
2021/12/06 05:10:58;;;;;;;20.85;9.18;;;;;;;;;;5032970;28;20033;-60
2021/12/06 05:13:25;;;;;;;22.05;8.80;;;;;;;;;;5033682;28;20024;-60
2021/12/06 05:15:51;;;;;;;18.73;8.23;;;;;;;;;;5033011;28;20034;-60
2021/12/06 05:18:18;;;;;;;13.57;7.22;;;;;;;;;;5032165;28;20078;-62
2021/12/06 05:20:44;;;;;;;12.68;6.10;;;;;;;;;;5033437;28;20021;-62
2021/12/06 05:23:11;;;;;;;14.88;7.28;;;;;;;;;;5032116;28;20036;-64
2021/12/06 05:25:37;;;;;;;21.70;8.90;;;;;;;;;;5031693;28;20050;-58
2021/12/06 05:28:05;;;;;;;24.50;12.02;;;;;;;;;;5032198;28;20482;-59
2021/12/06 05:30:33;;;;;;;45.53;15.30;;;;;;;;;;5032256;28;20026;-60
2021/12/06 05:33:00;;;;;;;37.70;14.65;;;;;;;;;;5033276;28;20021;-59
2021/12/06 05:35:27;;;;;;;25.88;9.88;;;;;;;;;;5033131;28;20029;-57
2021/12/06 05:37:55;;;;;;;24.45;10.05;;;;;;;;;;5033352;28;20454;-58
2021/12/06 05:40:25;;;;;;;31.00;11.30;;;;;;;;;;5033387;28;20031;-57
2021/12/06 05:42:52;;;;;;;23.52;9.48;;;;;;;;;;5033496;28;20124;-60
2021/12/06 05:45:20;;;;;;;24.55;9.90;;;;;;;;;;5033223;28;20022;-57
2021/12/06 05:47:46;;;;;;;32.60;11.48;;;;;;;;;;5033054;28;20018;-61
2021/12/06 05:50:14;;;;;;;28.83;11.52;;;;;;;;;;5033103;28;20463;-57
2021/12/06 05:52:40;;;;;;;18.90;8.35;;;;;;;;;;5033011;28;20569;-58
2021/12/06 05:55:07;;;;;;;20.33;8.88;;;;;;;;;;5032943;28;20030;-56
2021/12/06 05:57:34;;;;;;;13.85;6.55;;;;;;;;;;5032837;28;20022;-60
2021/12/06 06:00:00;;;;;;;11.63;5.65;;;;;;;;;;5032945;28;20025;-60
2021/12/06 06:02:26;;;;;;;15.15;6.50;;;;;;;;;;5033154;28;20378;-60
2021/12/06 06:04:52;;;;;;;10.77;5.80;;;;;;;;;;5033069;28;20026;-58
2021/12/06 06:07:18;;;;;;;12.20;6.18;;;;;;;;;;5033322;28;20095;-58
2021/12/06 06:09:45;;;;;;;18.33;8.27;;;;;;;;;;5032260;28;20055;-59
2021/12/06 06:12:11;;;;;;;28.52;10.73;;;;;;;;;;5029606;28;20479;-58
2021/12/06 06:14:37;;;;;;;27.67;10.75;;;;;;;;;;5032501;28;20386;-60
2021/12/06 06:17:13;;;;;;;37.35;13.00;;;;;;;;;;5033897;28;20474;-59
2021/12/06 06:19:42;;;;;;;38.22;14.48;;;;;;;;;;5036375;28;20057;-60
2021/12/06 06:22:08;;;;;;;26.75;11.20;;;;;;;;;;5036658;28;20032;-58
2021/12/06 06:24:34;;;;;;;33.10;12.15;;;;;;;;;;5036463;28;20128;-57
2021/12/06 06:27:01;;;;;;;44.60;16.23;;;;;;;;;;5036677;28;20017;-56
2021/12/06 06:29:27;;;;;;;27.50;11.43;;;;;;;;;;5036793;28;20078;-60
2021/12/06 06:31:54;;;;;;;19.90;9.32;;;;;;;;;;5036415;28;20025;-55
2021/12/06 06:34:20;;;;;;;17.33;7.97;;;;;;;;;;5036722;28;20453;-59
2021/12/06 06:36:47;;;;;;;13.85;6.75;;;;;;;;;;5036303;28;20113;-58
2021/12/06 06:39:13;;;;;;;14.55;5.95;;;;;;;;;;5036247;28;20562;-57
2021/12/06 06:41:40;;;;;;;17.88;8.15;;;;;;;;;;5036664;28;20061;-59
2021/12/06 06:44:06;;;;;;;14.55;6.57;;;;;;;;;;5036063;28;20382;-59
2021/12/06 06:46:33;;;;;;;17.73;8.57;;;;;;;;;;5035028;28;20028;-59
2021/12/06 06:49:00;;;;;;;26.83;10.07;;;;;;;;;;5035429;28;20025;-57
2021/12/06 06:51:27;;;;;;;20.23;9.35;;;;;;;;;;5034915;28;20475;-58
2021/12/06 06:53:53;;;;;;;16.08;8.57;;;;;;;;;;5035093;28;20018;-55
2021/12/06 06:56:20;;;;;;;16.63;8.25;;;;;;;;;;5034264;28;20391;-57
2021/12/06 06:58:46;;;;;;;33.75;11.93;;;;;;;;;;5035751;28;20171;-59
2021/12/06 07:01:12;;;;;;;25.85;9.82;;;;;;;;;;5036099;28;20079;-59
2021/12/06 07:03:39;;;;;;;10.25;5.20;;;;;;;;;;5035387;28;20070;-54
2021/12/06 07:06:05;;;;;;;12.95;6.18;;;;;;;;;;5035996;28;20075;-55
2021/12/06 07:08:31;;;;;;;15.07;6.45;;;;;;;;;;5035556;28;20021;-57
2021/12/06 07:10:57;;;;;;;12.63;5.60;;;;;;;;;;5035744;28;20032;-59
2021/12/06 07:13:27;;;;;;;30.15;12.50;;;;;;;;;;5035833;28;20029;-60
2021/12/06 07:15:53;;;;;;;30.88;13.15;;;;;;;;;;5035233;28;20557;-59
2021/12/06 07:18:19;;;;;;;18.55;9.02;;;;;;;;;;5035721;28;20113;-60
2021/12/06 07:20:45;;;;;;;11.80;5.57;;;;;;;;;;5035739;28;20071;-61
2021/12/06 07:23:11;;;;;;;7.22;4.68;;;;;;;;;;5035462;28;20036;-59
2021/12/06 07:25:38;;;;;;;9.60;4.90;;;;;;;;;;5035741;28;20132;-56
2021/12/06 07:28:06;;;;;;;9.90;4.75;;;;;;;;;;5035378;28;20026;-61
2021/12/06 07:30:32;;;;;;;10.60;4.72;;;;;;;;;;5035503;28;20463;-58
2021/12/06 07:32:59;;;;;;;11.43;4.22;;;;;;;;;;5035181;28;20047;-57
2021/12/06 07:35:27;;;;;;;5.38;2.97;;;;;;;;;;5035414;28;20030;-59
2021/12/06 07:37:53;;;;;;;7.93;3.20;;;;;;;;;;5035950;28;20021;-60
2021/12/06 07:40:19;;;;;;;5.70;2.55;;;;;;;;;;5035637;28;20029;-56
2021/12/06 07:42:46;;;;;;;6.22;3.13;;;;;;;;;;5034810;28;20021;-61
2021/12/06 07:45:13;;;;;;;7.13;3.13;;;;;;;;;;5035171;28;20026;-57
2021/12/06 07:47:39;;;;;;;5.85;2.92;;;;;;;;;;5034931;28;20036;-55
2021/12/06 07:50:07;;;;;;;6.22;3.03;;;;;;;;;;5034928;28;20018;-59
2021/12/06 07:52:33;;;;;;;6.07;3.20;;;;;;;;;;5034787;28;20471;-59
2021/12/06 07:55:01;;;;;;;7.32;3.88;;;;;;;;;;5034991;28;20037;-57
2021/12/06 07:57:30;;;;;;;9.48;4.53;;;;;;;;;;5034812;28;20462;-59
2021/12/06 07:59:56;;;;;;;9.65;5.03;;;;;;;;;;5034633;28;20104;-59
2021/12/06 08:02:23;;;;;;;10.65;5.65;;;;;;;;;;5034934;28;20018;-59
2021/12/06 08:04:59;;;;;;;9.30;6.05;;;;;;;;;;5034692;28;20029;-58
2021/12/06 08:07:25;;;;;;;10.75;5.78;;;;;;;;;;5034733;28;20025;-58
2021/12/06 08:09:53;;;;;;;13.40;5.97;;;;;;;;;;5034561;28;20029;-59
2021/12/06 08:12:19;;;;;;;16.85;6.57;;;;;;;;;;5034782;28;20022;-58
2021/12/06 08:14:45;;;;;;;14.18;6.93;;;;;;;;;;5034555;28;20544;-59
2021/12/06 08:17:14;;;;;;;13.65;7.25;;;;;;;;;;5034424;28;20471;-58
2021/12/06 08:19:41;;;;;;;14.13;7.35;;;;;;;;;;5034545;28;20378;-60
2021/12/06 08:22:07;;;;;;;16.08;6.60;;;;;;;;;;5034205;28;20475;-59
2021/12/06 08:24:33;;;;;;;14.23;7.03;;;;;;;;;;5034249;28;20050;-56
2021/12/06 08:26:59;;;;;;;16.52;7.95;;;;;;;;;;5034449;28;20028;-61
2021/12/06 08:29:27;;;;;;;12.82;6.47;;;;;;;;;;5034396;28;20022;-54
2021/12/06 08:31:53;;;;;;;12.27;6.13;;;;;;;;;;5034125;28;20030;-59
2021/12/06 08:34:19;;;;;;;9.73;4.88;;;;;;;;;;5034184;28;20029;-56
2021/12/06 08:36:45;;;;;;;9.80;5.53;;;;;;;;;;5033751;28;20039;-58
2021/12/06 08:39:11;;;;;;;10.82;5.15;;;;;;;;;;5033799;28;20348;-59
2021/12/06 08:41:37;;;;;;;12.65;5.35;;;;;;;;;;5033822;28;20021;-59
2021/12/06 08:44:04;;;;;;;11.43;5.40;;;;;;;;;;5034114;28;20022;-56
2021/12/06 08:46:32;;;;;;;9.88;5.55;;;;;;;;;;5034065;28;20025;-57
2021/12/06 08:49:00;;;;;;;13.13;6.20;;;;;;;;;;5034041;28;20083;-60
2021/12/06 08:51:27;;;;;;;15.18;5.95;;;;;;;;;;5033692;28;20025;-59
2021/12/06 08:53:54;;;;;;;13.80;6.50;;;;;;;;;;5033768;28;20071;-59
2021/12/06 08:56:20;;;;;;;13.70;7.90;;;;;;;;;;5033506;28;20437;-59
2021/12/06 08:58:47;;;;;;;14.82;7.40;;;;;;;;;;5033884;28;20056;-59
2021/12/06 09:01:14;;;;;;;14.23;7.47;;;;;;;;;;5034217;28;20025;-55
2021/12/06 09:03:40;;;;;;;14.27;7.68;;;;;;;;;;5033976;28;20013;-60
2021/12/06 09:06:09;;;;;;;14.13;7.65;;;;;;;;;;5033701;28;20037;-57
2021/12/06 09:08:35;;;;;;;16.30;8.35;;;;;;;;;;5033817;28;20374;-58
2021/12/06 09:11:02;;;;;;;17.50;9.10;;;;;;;;;;5033607;28;20029;-55
2021/12/06 09:13:29;;;;;;;28.65;12.45;;;;;;;;;;5033289;28;20024;-59
2021/12/06 09:15:56;;;;;;;15.07;8.38;;;;;;;;;;5033540;28;20025;-57
2021/12/06 09:18:23;;;;;;;10.98;7.07;;;;;;;;;;5033484;28;20037;-59
2021/12/06 09:20:50;;;;;;;14.93;7.78;;;;;;;;;;5033085;28;20029;-58
2021/12/06 09:23:17;;;;;;;14.65;8.25;;;;;;;;;;5033150;28;20022;-59
2021/12/06 09:25:44;;;;;;;13.32;7.40;;;;;;;;;;5033623;28;20381;-58
2021/12/06 09:28:12;;;;;;;19.27;8.25;;;;;;;;;;5033417;28;20035;-58
2021/12/06 09:30:38;;;;;;;15.55;8.50;;;;;;;;;;5033955;28;20018;-54
2021/12/06 09:33:08;;;;;;;16.50;8.38;;;;;;;;;;5033588;28;20041;-56
2021/12/06 09:35:36;;;;;;;12.70;7.20;;;;;;;;;;5033231;28;20036;-57
2021/12/06 09:38:04;;;;;;;16.08;8.10;;;;;;;;;;5033349;28;20061;-59
2021/12/06 09:40:30;;;;;;;16.45;8.73;;;;;;;;;;5033760;28;20022;-56
2021/12/06 09:42:59;;;;;;;15.55;8.52;;;;;;;;;;5033211;28;20029;-56
2021/12/06 09:45:26;;;;;;;13.77;7.85;;;;;;;;;;5033558;28;20352;-60
2021/12/06 09:47:53;;;;;;;13.43;7.18;;;;;;;;;;5034298;28;20100;-55
2021/12/06 09:50:21;;;;;;;12.90;7.05;;;;;;;;;;5037673;28;20045;-59
2021/12/06 09:52:48;;;;;;;10.57;5.55;;;;;;;;;;5036214;28;20486;-57
2021/12/06 09:55:14;;;;;;;12.07;7.03;;;;;;;;;;5035742;28;20034;-59
2021/12/06 09:57:40;;;;;;;12.90;7.43;;;;;;;;;;5037012;28;20049;-61
2021/12/06 10:00:11;;;;;;;10.18;6.20;;;;;;;;;;5035604;28;20363;-57
2021/12/06 10:02:37;;;;;;;9.73;5.50;;;;;;;;;;5036770;28;20025;-58
2021/12/06 10:05:04;;;;;;;10.45;5.43;;;;;;;;;;5036740;28;20025;-58
2021/12/06 10:07:31;;;;;;;10.45;5.43;;;;;;;;;;5036812;28;20044;-60
2021/12/06 10:09:58;;;;;;;10.45;6.03;;;;;;;;;;5036546;28;20029;-58
2021/12/06 10:12:25;;;;;;;8.20;5.03;;;;;;;;;;5036641;28;20045;-54
2021/12/06 10:14:52;;;;;;;9.80;4.75;;;;;;;;;;5036589;28;20109;-59
2021/12/06 10:17:19;;;;;;;12.23;6.07;;;;;;;;;;5036573;28;20383;-57
2021/12/06 10:19:46;;;;;;;11.35;6.25;;;;;;;;;;5036785;28;20029;-60
2021/12/06 10:22:15;;;;;;;13.30;6.43;;;;;;;;;;5036882;28;20506;-58
2021/12/06 10:24:42;;;;;;;13.70;6.88;;;;;;;;;;5036610;28;20057;-56
2021/12/06 10:27:08;;;;;;;9.25;5.18;;;;;;;;;;5036389;28;20071;-58
2021/12/06 10:29:40;;;;;;;15.65;7.85;;;;;;;;;;5036130;28;20040;-59
2021/12/06 10:32:11;;;;;;;18.90;9.43;;;;;;;;;;5036959;28;20080;-58
2021/12/06 10:34:37;;;;;;;20.85;9.60;;;;;;;;;;5036247;28;20021;-60
2021/12/06 10:37:04;;;;;;;14.70;7.22;;;;;;;;;;5035985;28;20459;-58
2021/12/06 10:39:35;;;;;;;13.73;7.10;;;;;;;;;;5036426;28;20044;-59
2021/12/06 10:42:02;;;;;;;14.00;6.50;;;;;;;;;;5036396;28;20024;-57
2021/12/06 10:44:28;;;;;;;8.57;5.80;;;;;;;;;;5035975;28;20040;-56
2021/12/06 10:46:54;;;;;;;9.20;5.32;;;;;;;;;;5036058;28;20028;-59
2021/12/06 10:49:22;;;;;;;8.77;3.97;;;;;;;;;;5036594;28;20025;-57
2021/12/06 10:51:48;;;;;;;7.57;4.45;;;;;;;;;;5035899;28;20475;-58
2021/12/06 10:54:20;;;;;;;10.63;5.07;;;;;;;;;;5036489;28;20026;-55
2021/12/06 10:56:48;;;;;;;9.95;4.60;;;;;;;;;;5036487;28;20385;-57
2021/12/06 10:59:15;;;;;;;8.05;4.53;;;;;;;;;;5035131;28;20029;-58
2021/12/06 11:01:42;;;;;;;5.38;3.58;;;;;;;;;;5035752;28;20021;-60
2021/12/06 11:04:09;;;;;;;7.47;4.10;;;;;;;;;;5035774;28;20541;-57
2021/12/06 11:06:42;;;;;;;8.20;4.53;;;;;;;;;;5035887;28;20041;-58
2021/12/06 11:09:08;;;;;;;10.48;5.75;;;;;;;;;;5036208;28;20109;-57
2021/12/06 11:11:37;;;;;;;10.25;4.95;;;;;;;;;;5035594;28;20028;-58
2021/12/06 11:14:09;;;;;;;9.77;4.15;;;;;;;;;;5036403;28;20022;-56
2021/12/06 11:16:37;;;;;;;6.03;3.15;;;;;;;;;;5035677;28;20036;-56
2021/12/06 11:19:11;;;;;;;9.35;3.97;;;;;;;;;;5036062;28;20025;-56
2021/12/06 11:21:45;;;;;;;7.50;3.50;;;;;;;;;;5036301;28;20024;-59
2021/12/06 11:24:11;;;;;;;4.68;2.92;;;;;;;;;;5035770;28;20071;-55
2021/12/06 11:26:39;;;;;;;6.70;3.85;;;;;;;;;;5035467;28;20116;-58
2021/12/06 11:29:23;;;;;;;11.07;5.25;;;;;;;;;;5035765;28;20025;-58
2021/12/06 11:32:15;;;;;;;13.77;5.80;;;;;;;;;;5036013;28;20367;-58
2021/12/06 11:34:45;;;;;;;7.13;4.18;;;;;;;;;;5033774;28;20072;-60
2021/12/06 11:37:12;;;;;;;11.40;4.72;;;;;;;;;;5035446;28;20021;-60
2021/12/06 11:39:39;;;;;;;5.45;3.00;;;;;;;;;;5035187;28;20368;-58
2021/12/06 11:42:05;;;;;;;6.00;2.78;;;;;;;;;;5035356;28;20025;-59
2021/12/06 11:44:35;;;;;;;5.47;2.83;;;;;;;;;;5035317;28;20028;-59
2021/12/06 11:47:05;;;;;;;8.10;3.53;;;;;;;;;;5035346;28;20057;-55
2021/12/06 11:49:36;;;;;;;8.85;3.53;;;;;;;;;;5035148;28;20282;-56
2021/12/06 11:52:04;;;;;;;6.15;3.33;;;;;;;;;;5035150;28;20029;-60
2021/12/06 11:54:43;;;;;;;9.88;4.40;;;;;;;;;;5033585;28;20116;-60
2021/12/06 11:57:10;;;;;;;9.00;4.30;;;;;;;;;;5035178;28;20042;-58
2021/12/06 11:59:44;;;;;;;11.32;4.13;;;;;;;;;;5035008;28;20017;-57
2021/12/06 12:02:11;;;;;;;9.65;4.28;;;;;;;;;;5034680;28;20360;-57
2021/12/06 12:04:37;;;;;;;10.00;4.60;;;;;;;;;;5034625;28;20032;-57
2021/12/06 12:07:05;;;;;;;14.93;6.75;;;;;;;;;;5034827;28;20017;-58
2021/12/06 12:09:39;;;;;;;16.23;5.43;;;;;;;;;;5033118;28;20091;-54
2021/12/06 12:12:06;;;;;;;11.77;5.45;;;;;;;;;;5033236;28;20040;-59
2021/12/06 12:14:33;;;;;;;9.18;4.18;;;;;;;;;;5034726;28;20057;-58
2021/12/06 12:17:01;;;;;;;9.15;4.35;;;;;;;;;;5034271;28;20544;-60
2021/12/06 12:19:27;;;;;;;14.50;6.50;;;;;;;;;;5034560;28;20111;-59
2021/12/06 12:21:53;;;;;;;15.20;6.65;;;;;;;;;;5034108;28;20033;-58
2021/12/06 12:24:20;;;;;;;9.88;4.55;;;;;;;;;;5034464;28;20053;-59
2021/12/06 12:27:24;;;;;;;10.27;5.40;;;;;;;;;;5034133;28;20030;-58
2021/12/06 12:29:38;;;;;;;12.23;4.75;;;;;;;;;;5032702;28;20451;-57
2021/12/06 12:32:06;;;;;;;12.27;6.60;;;;;;;;;;5034546;28;20025;-59
2021/12/06 12:34:34;;;;;;;9.48;4.90;;;;;;;;;;5034649;28;20096;-58
2021/12/06 12:37:01;;;;;;;12.13;4.97;;;;;;;;;;5033769;28;20072;-59
2021/12/06 12:39:27;;;;;;;6.35;3.63;;;;;;;;;;5034632;28;20080;-58
2021/12/06 12:41:56;;;;;;;9.48;4.68;;;;;;;;;;5034528;28;20021;-58
2021/12/06 12:44:22;;;;;;;8.70;4.68;;;;;;;;;;5033956;28;20022;-60
2021/12/06 12:46:50;;;;;;;13.45;6.43;;;;;;;;;;5034000;28;20116;-60
2021/12/06 12:49:21;;;;;;;13.23;5.68;;;;;;;;;;5034140;28;20025;-59
2021/12/06 12:51:47;;;;;;;15.70;7.05;;;;;;;;;;5033698;28;20021;-59
2021/12/06 12:54:27;;;;;;;13.05;6.78;;;;;;;;;;5033815;28;20071;-60
2021/12/06 12:56:57;;;;;;;20.30;10.02;;;;;;;;;;5033563;28;20041;-59
2021/12/06 12:59:43;;;;;;;16.80;7.78;;;;;;;;;;5033983;28;20021;-60
2021/12/06 13:02:12;;;;;;;22.55;9.98;;;;;;;;;;5033885;28;20029;-57
2021/12/06 13:04:56;;;;;;;12.77;6.22;;;;;;;;;;5033703;28;20366;-59
2021/12/06 13:07:23;;;;;;;8.80;4.63;;;;;;;;;;5034170;28;20104;-58
2021/12/06 13:09:49;;;;;;;10.15;5.00;;;;;;;;;;5033851;28;20489;-61
2021/12/06 13:12:16;;;;;;;13.63;6.22;;;;;;;;;;5033299;28;20485;-59
2021/12/06 13:14:48;;;;;;;8.48;4.60;;;;;;;;;;5033190;28;20047;-61
2021/12/06 13:17:24;;;;;;;7.75;3.25;;;;;;;;;;5033823;28;20014;-58
2021/12/06 13:20:11;;;;;;;7.25;2.80;;;;;;;;;;5033154;28;20026;-63
2021/12/06 13:22:46;;;;;;;6.93;2.83;;;;;;;;;;5032868;28;20075;-59
2021/12/06 13:25:14;;;;;;;6.15;2.47;;;;;;;;;;5033186;28;20045;-58
2021/12/06 13:27:46;;;;;;;6.53;3.60;;;;;;;;;;5033020;28;20132;-58
2021/12/06 13:30:18;;;;;;;9.05;3.95;;;;;;;;;;5033401;28;20026;-58
2021/12/06 13:32:44;;;;;;;13.57;4.80;;;;;;;;;;5033328;28;20017;-60
2021/12/06 13:35:19;;;;;;;10.23;4.63;;;;;;;;;;5033256;28;20096;-59
2021/12/06 13:38:04;;;;;;;9.73;3.97;;;;;;;;;;5033534;28;20036;-59
2021/12/06 13:40:31;;;;;;;8.23;4.43;;;;;;;;;;5032977;28;20052;-60
2021/12/06 13:42:58;;;;;;;8.85;3.58;;;;;;;;;;5033054;28;20079;-60
2021/12/06 16:00:09;;;;;;;11.55;5.93;;;;;;;;;;5011818;23;22982;-58
2021/12/06 16:02:36;;;;;;;12.82;6.32;;;;;;;;;;4995116;28;20105;-56
2021/12/06 16:05:08;;;;;;;9.68;5.53;;;;;;;;;;4994023;28;20033;-58
2021/12/06 16:10:40;;;;;;;11.57;5.15;;;;;;;;;;4994616;28;20029;-57
2021/12/06 16:13:11;;;;;;;12.32;5.82;;;;;;;;;;4994219;28;20038;-56
2021/12/06 16:15:37;;;;;;;;;;;;;;;;;;4995354;28;20034;-56
2021/12/06 16:18:06;;;;;;;8.52;5.75;;;;;;;;;;4993634;28;19909;-59
2021/12/06 16:20:34;;;;;;;9.30;4.88;;;;;;;;;;4995049;28;20466;-55
2021/12/06 16:23:05;;;;;;;9.75;4.97;;;;;;;;;;4977094;28;20074;-59
2021/12/06 16:25:31;;;;;;;8.88;5.40;;;;;;;;;;4976670;28;20030;-58
2021/12/06 16:27:57;;;;;;;9.15;4.35;;;;;;;;;;4994357;28;20098;-59
2021/12/06 16:30:27;;;;;;;11.82;7.22;;;;;;;;;;4994380;28;20034;-58
2021/12/06 16:32:55;;;;;;;11.20;4.97;;;;;;;;;;4993857;28;20026;-56
2021/12/06 16:35:23;;;;;;;9.27;4.53;;;;;;;;;;4994697;28;20026;-57
2021/12/06 16:37:50;;;;;;;10.10;6.00;;;;;;;;;;4994480;28;20467;-54
2021/12/06 16:40:18;;;;;;;10.02;5.85;;;;;;;;;;4994676;28;20037;-58
2021/12/06 16:42:51;;;;;;;10.90;5.40;;;;;;;;;;4993628;28;20427;-58
2021/12/06 16:45:21;;;;;;;13.63;5.68;;;;;;;;;;4994302;28;20030;-56
2021/12/06 16:47:54;;;;;;;9.30;4.47;;;;;;;;;;4994645;28;20085;-58
2021/12/06 16:50:27;;;;;;;8.15;5.15;;;;;;;;;;4994397;28;20537;-58
2021/12/06 16:53:01;;;;;;;10.48;5.15;;;;;;;;;;4994722;28;20124;-55
2021/12/06 16:55:31;;;;;;;12.18;5.82;;;;;;;;;;4994065;28;20030;-55
2021/12/06 16:57:59;;;;;;;12.63;5.18;;;;;;;;;;4992527;28;20053;-57
2021/12/06 17:00:27;;;;;;;9.32;4.75;;;;;;;;;;4994143;28;20107;-58
2021/12/06 17:02:56;;;;;;;9.25;4.38;;;;;;;;;;4994574;28;20026;-59
2021/12/06 17:05:22;;;;;;;9.00;4.10;;;;;;;;;;4994164;28;20181;-56
2021/12/06 17:07:49;;;;;;;15.15;6.68;;;;;;;;;;4993945;28;20089;-58